JES3100 SABE-SACO
Flight info
| Callsign | JES3100 |
|---|---|
| Flight time | 1h 32m |
| Altitude | 36000 |
| Route | ATOVO UW5 ASISA |
| Aircraft | A320/M-SDGIRWY/E |
Departure
| Time | 2026-05-03 21:13 |
|---|---|
| Airport | Aeroparque Jorge Newbery (SABE) |
Arrival
| Time | 2026-05-03 22:46 |
|---|---|
| Airport | Ingeniero Aeronáutico Ambrosio L.V. Taravella International Airport (SACO) |
| Time | Latitude | Longitude | Altitude | Speed | Heading |
|---|---|---|---|---|---|
| 2026-05-03 20:23 | -34.55549 | -58.41675 | 26 ft | 0 kts | 34° |
| 2026-05-03 20:49 | -34.55561 | -58.41685 | 30 ft | 4 kts | 34° |
| 2026-05-03 20:49 | -34.55584 | -58.41703 | 27 ft | 4 kts | 33° |
| 2026-05-03 20:49 | -34.55606 | -58.41721 | 27 ft | 4 kts | 30° |
| 2026-05-03 20:49 | -34.55630 | -58.41735 | 27 ft | 4 kts | 6° |
| 2026-05-03 20:50 | -34.55649 | -58.41728 | 31 ft | 4 kts | 304° |
| 2026-05-03 20:50 | -34.55652 | -58.41722 | 28 ft | 0 kts | 304° |
| 2026-05-03 20:53 | -34.55648 | -58.41729 | 31 ft | 4 kts | 304° |
| 2026-05-03 20:53 | -34.55621 | -58.41778 | 27 ft | 10 kts | 304° |
| 2026-05-03 20:54 | -34.55611 | -58.41834 | 27 ft | 5 kts | 241° |
| 2026-05-03 20:54 | -34.55691 | -58.41839 | 28 ft | 7 kts | 125° |
| 2026-05-03 20:54 | -34.55735 | -58.41756 | 28 ft | 14 kts | 119° |
| 2026-05-03 20:55 | -34.55783 | -58.41642 | 29 ft | 16 kts | 116° |
| 2026-05-03 20:55 | -34.55836 | -58.41510 | 30 ft | 19 kts | 116° |
| 2026-05-03 20:55 | -34.55892 | -58.41380 | 28 ft | 16 kts | 117° |
| 2026-05-03 20:55 | -34.55940 | -58.41275 | 28 ft | 15 kts | 124° |
| 2026-05-03 20:56 | -34.56014 | -58.41157 | 29 ft | 19 kts | 127° |
| 2026-05-03 20:56 | -34.56100 | -58.41020 | 29 ft | 22 kts | 127° |
| 2026-05-03 20:56 | -34.56168 | -58.40894 | 29 ft | 11 kts | 118° |
| 2026-05-03 20:56 | -34.56176 | -58.40821 | 25 ft | 9 kts | 111° |
| 2026-05-03 20:57 | -34.56199 | -58.40780 | 29 ft | 2 kts | 125° |
| 2026-05-03 20:57 | -34.56200 | -58.40778 | 28 ft | 0 kts | 125° |
| 2026-05-03 20:57 | -34.56212 | -58.40759 | 29 ft | 7 kts | 125° |
| 2026-05-03 20:57 | -34.56241 | -58.40706 | 29 ft | 7 kts | 123° |
| 2026-05-03 20:58 | -34.56251 | -58.40689 | 29 ft | 0 kts | 123° |
| 2026-05-03 21:00 | -34.56252 | -58.40686 | 28 ft | 2 kts | 123° |
| 2026-05-03 21:00 | -34.56273 | -58.40648 | 27 ft | 3 kts | 123° |
| 2026-05-03 21:00 | -34.56276 | -58.40642 | 27 ft | 0 kts | 123° |
| 2026-05-03 21:02 | -34.56282 | -58.40631 | 28 ft | 3 kts | 123° |
| 2026-05-03 21:03 | -34.56294 | -58.40610 | 27 ft | 2 kts | 124° |
| 2026-05-03 21:03 | -34.56301 | -58.40598 | 25 ft | 0 kts | 126° |
| 2026-05-03 21:05 | -34.56304 | -58.40593 | 27 ft | 3 kts | 127° |
| 2026-05-03 21:05 | -34.56317 | -58.40577 | 28 ft | 5 kts | 134° |
| 2026-05-03 21:05 | -34.56359 | -58.40530 | 29 ft | 8 kts | 138° |
| 2026-05-03 21:05 | -34.56388 | -58.40499 | 30 ft | 9 kts | 138° |
| 2026-05-03 21:06 | -34.56411 | -58.40474 | 26 ft | 1 kts | 138° |
| 2026-05-03 21:06 | -34.56412 | -58.40473 | 26 ft | 0 kts | 138° |
| 2026-05-03 21:11 | -34.56412 | -58.40472 | 25 ft | 1 kts | 138° |
| 2026-05-03 21:11 | -34.56430 | -58.40454 | 29 ft | 6 kts | 138° |
| 2026-05-03 21:11 | -34.56471 | -58.40408 | 27 ft | 9 kts | 137° |
| 2026-05-03 21:11 | -34.56530 | -58.40390 | 28 ft | 10 kts | 208° |
| 2026-05-03 21:12 | -34.56561 | -58.40436 | 27 ft | 6 kts | 271° |
| 2026-05-03 21:12 | -34.56542 | -58.40473 | 27 ft | 16 kts | 306° |
| 2026-05-03 21:12 | -34.56336 | -58.40840 | 26 ft | 86 kts | 304° |
| 2026-05-03 21:12 | -34.55895 | -58.41631 | 26 ft | 137 kts | 304° |
| 2026-05-03 21:13 | -34.55336 | -58.42641 | 519 ft | 142 kts | 307° |
| 2026-05-03 21:13 | -34.54799 | -58.43619 | 1150 ft | 141 kts | 312° |
| 2026-05-03 21:13 | -34.54101 | -58.44501 | 1561 ft | 153 kts | 324° |
| 2026-05-03 21:13 | -34.53141 | -58.45242 | 1854 ft | 175 kts | 337° |
| 2026-05-03 21:14 | -34.51910 | -58.45713 | 2177 ft | 199 kts | 351° |
| 2026-05-03 21:14 | -34.50427 | -58.45727 | 2632 ft | 226 kts | 7° |
| 2026-05-03 21:14 | -34.48866 | -58.45064 | 3233 ft | 249 kts | 27° |
| 2026-05-03 21:14 | -34.47366 | -58.43936 | 4081 ft | 257 kts | 28° |
| 2026-05-03 21:15 | -34.45821 | -58.42773 | 4981 ft | 265 kts | 28° |
| 2026-05-03 21:15 | -34.44234 | -58.41582 | 5861 ft | 272 kts | 28° |
| 2026-05-03 21:15 | -34.42602 | -58.40362 | 6745 ft | 278 kts | 28° |
| 2026-05-03 21:15 | -34.40939 | -58.39125 | 7593 ft | 283 kts | 27° |
| 2026-05-03 21:16 | -34.39214 | -58.37940 | 8455 ft | 285 kts | 18° |
| 2026-05-03 21:16 | -34.37299 | -58.37413 | 9301 ft | 282 kts | 357° |
| 2026-05-03 21:16 | -34.35380 | -58.37721 | 10147 ft | 278 kts | 337° |
| 2026-05-03 21:16 | -34.33639 | -58.38780 | 10674 ft | 289 kts | 322° |
| 2026-05-03 21:17 | -34.31922 | -58.40210 | 10967 ft | 311 kts | 322° |
| 2026-05-03 21:17 | -34.30722 | -58.41223 | 11347 ft | 319 kts | 322° |
| 2026-05-03 21:17 | -34.28300 | -58.43367 | 12329 ft | 325 kts | 313° |
| 2026-05-03 21:17 | -34.26903 | -58.45513 | 13093 ft | 327 kts | 301° |
| 2026-05-03 21:18 | -34.25664 | -58.47823 | 13880 ft | 332 kts | 300° |
| 2026-05-03 21:18 | -34.24399 | -58.50208 | 14599 ft | 336 kts | 300° |
| 2026-05-03 21:18 | -34.23133 | -58.52599 | 15321 ft | 339 kts | 299° |
| 2026-05-03 21:18 | -34.21857 | -58.55011 | 16040 ft | 343 kts | 299° |
| 2026-05-03 21:19 | -34.20563 | -58.57449 | 16750 ft | 347 kts | 299° |
| 2026-05-03 21:19 | -34.19252 | -58.59912 | 17461 ft | 350 kts | 299° |
| 2026-05-03 21:19 | -34.17923 | -58.62401 | 18153 ft | 354 kts | 299° |
| 2026-05-03 21:19 | -34.16583 | -58.64897 | 18801 ft | 357 kts | 299° |
| 2026-05-03 21:20 | -34.15242 | -58.67392 | 19445 ft | 361 kts | 299° |
| 2026-05-03 21:20 | -34.13846 | -58.69990 | 20115 ft | 364 kts | 298° |
| 2026-05-03 21:20 | -34.12466 | -58.72562 | 20794 ft | 367 kts | 298° |
| 2026-05-03 21:20 | -34.11069 | -58.75166 | 21459 ft | 371 kts | 298° |
| 2026-05-03 21:21 | -34.09666 | -58.77791 | 22101 ft | 374 kts | 298° |
| 2026-05-03 21:21 | -34.08244 | -58.80447 | 22741 ft | 378 kts | 298° |
| 2026-05-03 21:21 | -34.06825 | -58.83084 | 23367 ft | 381 kts | 298° |
| 2026-05-03 21:21 | -34.05353 | -58.85813 | 23958 ft | 385 kts | 298° |
| 2026-05-03 21:22 | -34.03908 | -58.88497 | 24500 ft | 388 kts | 298° |
| 2026-05-03 21:22 | -34.02414 | -58.91271 | 25052 ft | 391 kts | 298° |
| 2026-05-03 21:22 | -34.00950 | -58.93996 | 25589 ft | 394 kts | 298° |
| 2026-05-03 21:22 | -33.99450 | -58.96779 | 26143 ft | 397 kts | 298° |
| 2026-05-03 21:23 | -33.97939 | -58.99578 | 26677 ft | 400 kts | 297° |
| 2026-05-03 21:23 | -33.96410 | -59.02397 | 27217 ft | 403 kts | 297° |
| 2026-05-03 21:23 | -33.94874 | -59.05228 | 27746 ft | 406 kts | 297° |
| 2026-05-03 21:23 | -33.93324 | -59.08088 | 28268 ft | 409 kts | 297° |
| 2026-05-03 21:24 | -33.91763 | -59.10972 | 28780 ft | 412 kts | 297° |
| 2026-05-03 21:24 | -33.90189 | -59.13879 | 29287 ft | 415 kts | 297° |
| 2026-05-03 21:24 | -33.88605 | -59.16804 | 29775 ft | 418 kts | 297° |
| 2026-05-03 21:24 | -33.87010 | -59.19744 | 30225 ft | 421 kts | 297° |
| 2026-05-03 21:25 | -33.85397 | -59.22702 | 30596 ft | 424 kts | 297° |
| 2026-05-03 21:25 | -33.83773 | -59.25679 | 30991 ft | 426 kts | 297° |
| 2026-05-03 21:25 | -33.82146 | -59.28659 | 31472 ft | 426 kts | 297° |
| 2026-05-03 21:25 | -33.80528 | -59.31626 | 32023 ft | 423 kts | 296° |
| 2026-05-03 21:26 | -33.78916 | -59.34581 | 32575 ft | 422 kts | 296° |
| 2026-05-03 21:26 | -33.77314 | -59.37519 | 33102 ft | 420 kts | 296° |
| 2026-05-03 21:26 | -33.75717 | -59.40449 | 33648 ft | 418 kts | 296° |
| 2026-05-03 21:26 | -33.74120 | -59.43369 | 34173 ft | 417 kts | 296° |
| 2026-05-03 21:27 | -33.72531 | -59.46275 | 34636 ft | 416 kts | 296° |
| 2026-05-03 21:27 | -33.70949 | -59.49172 | 35101 ft | 414 kts | 296° |
| 2026-05-03 21:27 | -33.69370 | -59.52056 | 35557 ft | 413 kts | 296° |
| 2026-05-03 21:27 | -33.67789 | -59.54933 | 35960 ft | 413 kts | 296° |
| 2026-05-03 21:28 | -33.64633 | -59.60678 | 36074 ft | 412 kts | 296° |
| 2026-05-03 21:28 | -33.61470 | -59.66441 | 36070 ft | 418 kts | 296° |
| 2026-05-03 21:29 | -33.58247 | -59.72292 | 36069 ft | 422 kts | 296° |
| 2026-05-03 21:29 | -33.55004 | -59.78156 | 36070 ft | 422 kts | 296° |
| 2026-05-03 21:30 | -33.51762 | -59.84020 | 36069 ft | 422 kts | 296° |
| 2026-05-03 21:30 | -33.48516 | -59.89884 | 36064 ft | 422 kts | 296° |
| 2026-05-03 21:31 | -33.45273 | -59.95747 | 36064 ft | 422 kts | 296° |
| 2026-05-03 21:31 | -33.42038 | -60.01584 | 36069 ft | 422 kts | 296° |
| 2026-05-03 21:32 | -33.38776 | -60.07437 | 36062 ft | 422 kts | 296° |
| 2026-05-03 21:32 | -33.35517 | -60.13286 | 36053 ft | 422 kts | 296° |
| 2026-05-03 21:33 | -33.32263 | -60.19126 | 36050 ft | 422 kts | 296° |
| 2026-05-03 21:33 | -33.29007 | -60.24963 | 36053 ft | 422 kts | 296° |
| 2026-05-03 21:34 | -33.25753 | -60.30793 | 36048 ft | 422 kts | 296° |
| 2026-05-03 21:34 | -33.22488 | -60.36610 | 36044 ft | 421 kts | 296° |
| 2026-05-03 21:35 | -33.19216 | -60.42418 | 36044 ft | 421 kts | 296° |
| 2026-05-03 21:35 | -33.16056 | -60.48024 | 36042 ft | 421 kts | 296° |
| 2026-05-03 21:36 | -33.12794 | -60.53826 | 36042 ft | 421 kts | 296° |
| 2026-05-03 21:36 | -33.09534 | -60.59624 | 36041 ft | 421 kts | 296° |
| 2026-05-03 21:37 | -33.06269 | -60.65416 | 36046 ft | 421 kts | 297° |
| 2026-05-03 21:37 | -33.03012 | -60.71167 | 36050 ft | 420 kts | 297° |
| 2026-05-03 21:38 | -32.99739 | -60.76937 | 36049 ft | 420 kts | 297° |
| 2026-05-03 21:38 | -32.96462 | -60.82703 | 36050 ft | 420 kts | 297° |
| 2026-05-03 21:39 | -32.93200 | -60.88445 | 36047 ft | 420 kts | 297° |
| 2026-05-03 21:39 | -32.89920 | -60.94204 | 36045 ft | 420 kts | 297° |
| 2026-05-03 21:40 | -32.86640 | -60.99956 | 36041 ft | 419 kts | 297° |
| 2026-05-03 21:40 | -32.83356 | -61.05700 | 36035 ft | 419 kts | 297° |
| 2026-05-03 21:41 | -32.80077 | -61.11420 | 36035 ft | 419 kts | 297° |
| 2026-05-03 21:41 | -32.76792 | -61.17156 | 36034 ft | 419 kts | 297° |
| 2026-05-03 21:42 | -32.73517 | -61.22881 | 36033 ft | 419 kts | 297° |
| 2026-05-03 21:42 | -32.70240 | -61.28597 | 36030 ft | 419 kts | 297° |
| 2026-05-03 21:43 | -32.66974 | -61.34264 | 36031 ft | 418 kts | 297° |
| 2026-05-03 21:43 | -32.63686 | -61.39965 | 36026 ft | 418 kts | 297° |
| 2026-05-03 21:44 | -32.60401 | -61.45649 | 36030 ft | 418 kts | 297° |
| 2026-05-03 21:44 | -32.57113 | -61.51349 | 36027 ft | 418 kts | 297° |
| 2026-05-03 21:45 | -32.53834 | -61.57021 | 36031 ft | 418 kts | 297° |
| 2026-05-03 21:45 | -32.50537 | -61.62704 | 36026 ft | 418 kts | 297° |
| 2026-05-03 21:46 | -32.47243 | -61.68373 | 36023 ft | 417 kts | 297° |
| 2026-05-03 21:46 | -32.44508 | -61.73076 | 36034 ft | 417 kts | 297° |
| 2026-05-03 21:47 | -32.40666 | -61.79679 | 36038 ft | 417 kts | 297° |
| 2026-05-03 21:47 | -32.37374 | -61.85323 | 36033 ft | 417 kts | 297° |
| 2026-05-03 21:48 | -32.34628 | -61.90016 | 36032 ft | 416 kts | 297° |
| 2026-05-03 21:48 | -32.31490 | -61.95733 | 36032 ft | 413 kts | 294° |
| 2026-05-03 21:49 | -32.28630 | -62.01490 | 36023 ft | 401 kts | 293° |
| 2026-05-03 21:49 | -32.25825 | -62.07171 | 36026 ft | 400 kts | 294° |
| 2026-05-03 21:50 | -32.22980 | -62.12807 | 36021 ft | 400 kts | 294° |
| 2026-05-03 21:50 | -32.20103 | -62.18423 | 36021 ft | 399 kts | 294° |
| 2026-05-03 21:51 | -32.17229 | -62.24019 | 36021 ft | 399 kts | 294° |
| 2026-05-03 21:51 | -32.14350 | -62.29623 | 35762 ft | 400 kts | 294° |
| 2026-05-03 21:52 | -32.12903 | -62.32449 | 35507 ft | 400 kts | 294° |
| 2026-05-03 21:52 | -32.11469 | -62.35251 | 35261 ft | 401 kts | 294° |
| 2026-05-03 21:52 | -32.10020 | -62.38077 | 34712 ft | 403 kts | 294° |
| 2026-05-03 21:52 | -32.08574 | -62.40898 | 34200 ft | 402 kts | 295° |
| 2026-05-03 21:53 | -32.07121 | -62.43720 | 33730 ft | 399 kts | 295° |
| 2026-05-03 21:53 | -32.05684 | -62.46507 | 33274 ft | 395 kts | 295° |
| 2026-05-03 21:53 | -32.04265 | -62.49255 | 32812 ft | 391 kts | 295° |
| 2026-05-03 21:53 | -32.02853 | -62.51984 | 32358 ft | 387 kts | 295° |
| 2026-05-03 21:54 | -32.01462 | -62.54678 | 31912 ft | 384 kts | 295° |
| 2026-05-03 21:54 | -32.00097 | -62.57323 | 31464 ft | 381 kts | 295° |
| 2026-05-03 21:54 | -31.98727 | -62.59973 | 31025 ft | 378 kts | 295° |
| 2026-05-03 21:54 | -31.97364 | -62.62610 | 30579 ft | 375 kts | 295° |
| 2026-05-03 21:55 | -31.96011 | -62.65227 | 30152 ft | 373 kts | 295° |
| 2026-05-03 21:55 | -31.94667 | -62.67825 | 29658 ft | 370 kts | 295° |
| 2026-05-03 21:55 | -31.93340 | -62.70390 | 29242 ft | 366 kts | 295° |
| 2026-05-03 21:55 | -31.92023 | -62.72935 | 28826 ft | 363 kts | 295° |
| 2026-05-03 21:56 | -31.90686 | -62.75455 | 28412 ft | 363 kts | 299° |
| 2026-05-03 21:56 | -31.88868 | -62.77600 | 27780 ft | 381 kts | 319° |
| 2026-05-03 21:56 | -31.86529 | -62.79109 | 27241 ft | 389 kts | 326° |
| 2026-05-03 21:56 | -31.84076 | -62.80507 | 26744 ft | 389 kts | 327° |
| 2026-05-03 21:57 | -31.81640 | -62.81886 | 26321 ft | 387 kts | 327° |
| 2026-05-03 21:57 | -31.79239 | -62.83246 | 25904 ft | 384 kts | 327° |
| 2026-05-03 21:57 | -31.76821 | -62.84618 | 25481 ft | 382 kts | 327° |
| 2026-05-03 21:57 | -31.74431 | -62.85977 | 25063 ft | 380 kts | 327° |
| 2026-05-03 21:58 | -31.72063 | -62.87328 | 24649 ft | 378 kts | 327° |
| 2026-05-03 21:58 | -31.69705 | -62.88676 | 24235 ft | 376 kts | 327° |
| 2026-05-03 21:58 | -31.67366 | -62.90018 | 23826 ft | 374 kts | 327° |
| 2026-05-03 21:58 | -31.65041 | -62.91357 | 23385 ft | 372 kts | 327° |
| 2026-05-03 21:59 | -31.62724 | -62.92696 | 22907 ft | 369 kts | 327° |
| 2026-05-03 21:59 | -31.60475 | -62.94002 | 22454 ft | 366 kts | 327° |
| 2026-05-03 21:59 | -31.58194 | -62.95334 | 22000 ft | 364 kts | 327° |
| 2026-05-03 21:59 | -31.55947 | -62.96654 | 21548 ft | 361 kts | 327° |
| 2026-05-03 22:00 | -31.53706 | -62.97976 | 21109 ft | 359 kts | 327° |
| 2026-05-03 22:00 | -31.51480 | -62.99297 | 20680 ft | 356 kts | 327° |
| 2026-05-03 22:00 | -31.49276 | -63.00612 | 20252 ft | 354 kts | 327° |
| 2026-05-03 22:00 | -31.47088 | -63.01923 | 19841 ft | 352 kts | 327° |
| 2026-05-03 22:01 | -31.44932 | -63.03220 | 19432 ft | 349 kts | 327° |
| 2026-05-03 22:01 | -31.42771 | -63.04526 | 19026 ft | 347 kts | 327° |
| 2026-05-03 22:01 | -31.40628 | -63.05827 | 18618 ft | 345 kts | 327° |
| 2026-05-03 22:01 | -31.38507 | -63.07121 | 18212 ft | 343 kts | 327° |
| 2026-05-03 22:02 | -31.36397 | -63.08416 | 17759 ft | 341 kts | 327° |
| 2026-05-03 22:02 | -31.34304 | -63.09713 | 17313 ft | 339 kts | 327° |
| 2026-05-03 22:02 | -31.32226 | -63.11010 | 16879 ft | 337 kts | 327° |
| 2026-05-03 22:02 | -31.30169 | -63.12307 | 16461 ft | 336 kts | 327° |
| 2026-05-03 22:03 | -31.28105 | -63.13579 | 16046 ft | 336 kts | 332° |
| 2026-05-03 22:03 | -31.25866 | -63.14393 | 15636 ft | 338 kts | 341° |
| 2026-05-03 22:03 | -31.23587 | -63.15070 | 15244 ft | 337 kts | 342° |
| 2026-05-03 22:03 | -31.21323 | -63.15740 | 14865 ft | 335 kts | 342° |
| 2026-05-03 22:04 | -31.19109 | -63.16513 | 14494 ft | 329 kts | 331° |
| 2026-05-03 22:04 | -31.17295 | -63.18037 | 14145 ft | 318 kts | 308° |
| 2026-05-03 22:04 | -31.16135 | -63.20196 | 13758 ft | 313 kts | 293° |
| 2026-05-03 22:04 | -31.15231 | -63.22503 | 13323 ft | 312 kts | 292° |
| 2026-05-03 22:05 | -31.14370 | -63.24778 | 12930 ft | 311 kts | 292° |
| 2026-05-03 22:05 | -31.13488 | -63.27126 | 12526 ft | 310 kts | 292° |
| 2026-05-03 22:05 | -31.12643 | -63.29392 | 12162 ft | 308 kts | 292° |
| 2026-05-03 22:05 | -31.11787 | -63.31702 | 12008 ft | 306 kts | 291° |
| 2026-05-03 22:06 | -31.10939 | -63.33989 | 12020 ft | 308 kts | 291° |
| 2026-05-03 22:06 | -31.10086 | -63.36289 | 12020 ft | 309 kts | 292° |
| 2026-05-03 22:06 | -31.09243 | -63.38558 | 12020 ft | 309 kts | 292° |
| 2026-05-03 22:06 | -31.08386 | -63.40861 | 12025 ft | 309 kts | 292° |
| 2026-05-03 22:07 | -31.07530 | -63.43157 | 12023 ft | 309 kts | 292° |
| 2026-05-03 22:07 | -31.06675 | -63.45454 | 12025 ft | 309 kts | 292° |
| 2026-05-03 22:07 | -31.05817 | -63.47753 | 12019 ft | 309 kts | 292° |
| 2026-05-03 22:07 | -31.04960 | -63.50043 | 12021 ft | 309 kts | 292° |
| 2026-05-03 22:08 | -31.04100 | -63.52341 | 12026 ft | 309 kts | 292° |
| 2026-05-03 22:08 | -31.03243 | -63.54621 | 12023 ft | 309 kts | 292° |
| 2026-05-03 22:08 | -31.02378 | -63.56926 | 12020 ft | 309 kts | 292° |
| 2026-05-03 22:08 | -31.01515 | -63.59222 | 12023 ft | 309 kts | 292° |
| 2026-05-03 22:09 | -31.00650 | -63.61515 | 12024 ft | 309 kts | 292° |
| 2026-05-03 22:09 | -30.99786 | -63.63803 | 12016 ft | 309 kts | 292° |
| 2026-05-03 22:09 | -30.98920 | -63.66096 | 12018 ft | 308 kts | 292° |
| 2026-05-03 22:10 | -30.97189 | -63.70672 | 12026 ft | 309 kts | 292° |
| 2026-05-03 22:10 | -30.96321 | -63.72963 | 12020 ft | 309 kts | 292° |
| 2026-05-03 22:10 | -30.95452 | -63.75250 | 12018 ft | 308 kts | 292° |
| 2026-05-03 22:10 | -30.94596 | -63.77502 | 12016 ft | 308 kts | 292° |
| 2026-05-03 22:11 | -30.93726 | -63.79788 | 12020 ft | 309 kts | 292° |
| 2026-05-03 22:11 | -30.92856 | -63.82072 | 12010 ft | 308 kts | 292° |
| 2026-05-03 22:11 | -30.91987 | -63.84357 | 12015 ft | 308 kts | 292° |
| 2026-05-03 22:11 | -30.91118 | -63.86640 | 12011 ft | 308 kts | 292° |
| 2026-05-03 22:12 | -30.90249 | -63.88919 | 12012 ft | 308 kts | 292° |
| 2026-05-03 22:12 | -30.89378 | -63.91197 | 12010 ft | 308 kts | 292° |
| 2026-05-03 22:12 | -30.88508 | -63.93475 | 12016 ft | 308 kts | 292° |
| 2026-05-03 22:12 | -30.87634 | -63.95757 | 12017 ft | 308 kts | 292° |
| 2026-05-03 22:13 | -30.86760 | -63.98033 | 12016 ft | 308 kts | 292° |
| 2026-05-03 22:13 | -30.85883 | -64.00314 | 12014 ft | 309 kts | 292° |
| 2026-05-03 22:13 | -30.85029 | -64.02601 | 12013 ft | 308 kts | 288° |
| 2026-05-03 22:13 | -30.84731 | -64.05038 | 12014 ft | 305 kts | 266° |
| 2026-05-03 22:14 | -30.84936 | -64.07498 | 12016 ft | 306 kts | 263° |
| 2026-05-03 22:14 | -30.85196 | -64.09952 | 12013 ft | 306 kts | 262° |
| 2026-05-03 22:14 | -30.85460 | -64.12394 | 12018 ft | 306 kts | 262° |
| 2026-05-03 22:14 | -30.85726 | -64.14856 | 12015 ft | 306 kts | 262° |
| 2026-05-03 22:15 | -30.85989 | -64.17317 | 12014 ft | 306 kts | 262° |
| 2026-05-03 22:15 | -30.86250 | -64.19773 | 12011 ft | 306 kts | 262° |
| 2026-05-03 22:15 | -30.86512 | -64.22225 | 12014 ft | 306 kts | 262° |
| 2026-05-03 22:15 | -30.86767 | -64.24654 | 12009 ft | 306 kts | 262° |
| 2026-05-03 22:16 | -30.87027 | -64.27128 | 12010 ft | 306 kts | 262° |
| 2026-05-03 22:16 | -30.87282 | -64.29588 | 12008 ft | 306 kts | 263° |
| 2026-05-03 22:16 | -30.87542 | -64.32071 | 12009 ft | 306 kts | 263° |
| 2026-05-03 22:16 | -30.87797 | -64.34509 | 12006 ft | 306 kts | 262° |
| 2026-05-03 22:17 | -30.88052 | -64.36971 | 12012 ft | 306 kts | 263° |
| 2026-05-03 22:17 | -30.88304 | -64.39422 | 12005 ft | 306 kts | 263° |
| 2026-05-03 22:17 | -30.88554 | -64.41887 | 12009 ft | 306 kts | 263° |
| 2026-05-03 22:17 | -30.88806 | -64.44349 | 12006 ft | 306 kts | 263° |
| 2026-05-03 22:18 | -30.89055 | -64.46809 | 12003 ft | 305 kts | 263° |
| 2026-05-03 22:18 | -30.89305 | -64.49265 | 12005 ft | 306 kts | 263° |
| 2026-05-03 22:18 | -30.89553 | -64.51720 | 12004 ft | 305 kts | 263° |
| 2026-05-03 22:18 | -30.89800 | -64.54172 | 12000 ft | 305 kts | 263° |
| 2026-05-03 22:19 | -30.90047 | -64.56628 | 12002 ft | 306 kts | 263° |
| 2026-05-03 22:19 | -30.90294 | -64.59084 | 12001 ft | 305 kts | 263° |
| 2026-05-03 22:19 | -30.90540 | -64.61538 | 11997 ft | 305 kts | 263° |
| 2026-05-03 22:19 | -30.90784 | -64.63997 | 11998 ft | 305 kts | 263° |
| 2026-05-03 22:20 | -30.91024 | -64.66432 | 11997 ft | 305 kts | 263° |
| 2026-05-03 22:20 | -30.91268 | -64.68901 | 11997 ft | 305 kts | 263° |
| 2026-05-03 22:20 | -30.91508 | -64.71351 | 11996 ft | 305 kts | 263° |
| 2026-05-03 22:20 | -30.91751 | -64.73811 | 11994 ft | 305 kts | 263° |
| 2026-05-03 22:21 | -30.91995 | -64.76267 | 11993 ft | 305 kts | 262° |
| 2026-05-03 22:21 | -30.92631 | -64.78598 | 11991 ft | 304 kts | 240° |
| 2026-05-03 22:21 | -30.94031 | -64.80395 | 11995 ft | 307 kts | 216° |
| 2026-05-03 22:21 | -30.96026 | -64.81380 | 11997 ft | 312 kts | 192° |
| 2026-05-03 22:22 | -30.98210 | -64.81553 | 11995 ft | 316 kts | 184° |
| 2026-05-03 22:22 | -31.00407 | -64.81583 | 11993 ft | 316 kts | 183° |
| 2026-05-03 22:22 | -31.02571 | -64.81601 | 11994 ft | 317 kts | 183° |
| 2026-05-03 22:22 | -31.04776 | -64.81617 | 11996 ft | 317 kts | 183° |
| 2026-05-03 22:23 | -31.06986 | -64.81634 | 11999 ft | 317 kts | 183° |
| 2026-05-03 22:23 | -31.09189 | -64.81652 | 11995 ft | 316 kts | 183° |
| 2026-05-03 22:23 | -31.11394 | -64.81671 | 11998 ft | 317 kts | 183° |
| 2026-05-03 22:23 | -31.13596 | -64.81691 | 11996 ft | 317 kts | 183° |
| 2026-05-03 22:24 | -31.15805 | -64.81713 | 11997 ft | 317 kts | 183° |
| 2026-05-03 22:24 | -31.18002 | -64.81736 | 11995 ft | 317 kts | 183° |
| 2026-05-03 22:24 | -31.20208 | -64.81762 | 11993 ft | 317 kts | 183° |
| 2026-05-03 22:24 | -31.22414 | -64.81788 | 11993 ft | 317 kts | 183° |
| 2026-05-03 22:25 | -31.24639 | -64.81814 | 11994 ft | 318 kts | 183° |
| 2026-05-03 22:25 | -31.26836 | -64.81841 | 11993 ft | 318 kts | 183° |
| 2026-05-03 22:25 | -31.29060 | -64.81869 | 11992 ft | 318 kts | 183° |
| 2026-05-03 22:25 | -31.31277 | -64.81898 | 11992 ft | 319 kts | 183° |
| 2026-05-03 22:26 | -31.33490 | -64.81927 | 11993 ft | 318 kts | 183° |
| 2026-05-03 22:26 | -31.35719 | -64.81958 | 11985 ft | 319 kts | 183° |
| 2026-05-03 22:26 | -31.37938 | -64.81989 | 11988 ft | 319 kts | 183° |
| 2026-05-03 22:26 | -31.40155 | -64.82021 | 11989 ft | 319 kts | 183° |
| 2026-05-03 22:27 | -31.42376 | -64.82056 | 11991 ft | 319 kts | 183° |
| 2026-05-03 22:27 | -31.44595 | -64.82093 | 11985 ft | 319 kts | 183° |
| 2026-05-03 22:27 | -31.46818 | -64.82132 | 11987 ft | 320 kts | 183° |
| 2026-05-03 22:27 | -31.49042 | -64.82173 | 11985 ft | 320 kts | 183° |
| 2026-05-03 22:28 | -31.51270 | -64.82219 | 11986 ft | 319 kts | 183° |
| 2026-05-03 22:28 | -31.53495 | -64.82268 | 11986 ft | 320 kts | 184° |
| 2026-05-03 22:28 | -31.55717 | -64.82316 | 11984 ft | 320 kts | 183° |
| 2026-05-03 22:28 | -31.57933 | -64.82175 | 11978 ft | 322 kts | 169° |
| 2026-05-03 22:29 | -31.59979 | -64.81094 | 11981 ft | 327 kts | 145° |
| 2026-05-03 22:29 | -31.61555 | -64.79207 | 11982 ft | 330 kts | 130° |
| 2026-05-03 22:29 | -31.62968 | -64.77073 | 11980 ft | 330 kts | 128° |
| 2026-05-03 22:29 | -31.64359 | -64.74927 | 11980 ft | 330 kts | 128° |
| 2026-05-03 22:30 | -31.65755 | -64.72769 | 11984 ft | 331 kts | 128° |
| 2026-05-03 22:30 | -31.67140 | -64.70623 | 11983 ft | 330 kts | 128° |
| 2026-05-03 22:30 | -31.68523 | -64.68475 | 11814 ft | 328 kts | 128° |
| 2026-05-03 22:30 | -31.69897 | -64.66346 | 11453 ft | 326 kts | 128° |
| 2026-05-03 22:31 | -31.71263 | -64.64226 | 11100 ft | 324 kts | 128° |
| 2026-05-03 22:31 | -31.72614 | -64.62140 | 10970 ft | 322 kts | 128° |
| 2026-05-03 22:31 | -31.73979 | -64.60037 | 10981 ft | 323 kts | 128° |
| 2026-05-03 22:31 | -31.74886 | -64.58640 | 10983 ft | 324 kts | 128° |
| 2026-05-03 22:32 | -31.76699 | -64.55849 | 10988 ft | 324 kts | 128° |
| 2026-05-03 22:32 | -31.78065 | -64.53748 | 10986 ft | 324 kts | 128° |
| 2026-05-03 22:32 | -31.79433 | -64.51642 | 10988 ft | 324 kts | 128° |
| 2026-05-03 22:32 | -31.80797 | -64.49541 | 10989 ft | 324 kts | 128° |
| 2026-05-03 22:33 | -31.82168 | -64.47429 | 10989 ft | 324 kts | 128° |
| 2026-05-03 22:33 | -31.83075 | -64.46035 | 10989 ft | 324 kts | 128° |
| 2026-05-03 22:33 | -31.84408 | -64.42899 | 10827 ft | 322 kts | 101° |
| 2026-05-03 22:33 | -31.84484 | -64.40289 | 10475 ft | 320 kts | 85° |
| 2026-05-03 22:34 | -31.84355 | -64.38568 | 10343 ft | 315 kts | 83° |
| 2026-05-03 22:34 | -31.84069 | -64.35213 | 10103 ft | 306 kts | 83° |
| 2026-05-03 22:34 | -31.83928 | -64.33573 | 10023 ft | 304 kts | 83° |
| 2026-05-03 22:34 | -31.83715 | -64.31083 | 9993 ft | 305 kts | 83° |
| 2026-05-03 22:35 | -31.83503 | -64.28606 | 9996 ft | 305 kts | 83° |
| 2026-05-03 22:35 | -31.83289 | -64.26120 | 9996 ft | 305 kts | 83° |
| 2026-05-03 22:35 | -31.83071 | -64.23647 | 9974 ft | 304 kts | 82° |
| 2026-05-03 22:35 | -31.82469 | -64.21301 | 9660 ft | 298 kts | 58° |
| 2026-05-03 22:36 | -31.81112 | -64.19534 | 9346 ft | 291 kts | 32° |
| 2026-05-03 22:36 | -31.79356 | -64.18391 | 8989 ft | 288 kts | 24° |
| 2026-05-03 22:36 | -31.77560 | -64.17376 | 8666 ft | 286 kts | 22° |
| 2026-05-03 22:36 | -31.75773 | -64.16379 | 8358 ft | 284 kts | 23° |
| 2026-05-03 22:37 | -31.73994 | -64.15391 | 8037 ft | 282 kts | 22° |
| 2026-05-03 22:37 | -31.72223 | -64.14409 | 7729 ft | 280 kts | 23° |
| 2026-05-03 22:37 | -31.70452 | -64.13607 | 7425 ft | 276 kts | 13° |
| 2026-05-03 22:37 | -31.68606 | -64.13004 | 7125 ft | 274 kts | 13° |
| 2026-05-03 22:38 | -31.66778 | -64.12407 | 6835 ft | 272 kts | 13° |
| 2026-05-03 22:38 | -31.64963 | -64.11817 | 6534 ft | 271 kts | 13° |
| 2026-05-03 22:38 | -31.63145 | -64.11226 | 6248 ft | 268 kts | 13° |
| 2026-05-03 22:38 | -31.61359 | -64.10645 | 6027 ft | 266 kts | 14° |
| 2026-05-03 22:39 | -31.59570 | -64.10066 | 6003 ft | 267 kts | 13° |
| 2026-05-03 22:39 | -31.57774 | -64.09487 | 6006 ft | 267 kts | 13° |
| 2026-05-03 22:39 | -31.55990 | -64.08911 | 6009 ft | 268 kts | 13° |
| 2026-05-03 22:39 | -31.54189 | -64.08331 | 6010 ft | 267 kts | 13° |
| 2026-05-03 22:40 | -31.52411 | -64.07758 | 6006 ft | 259 kts | 13° |
| 2026-05-03 22:40 | -31.50720 | -64.07210 | 6003 ft | 246 kts | 13° |
| 2026-05-03 22:40 | -31.49118 | -64.06689 | 6007 ft | 231 kts | 13° |
| 2026-05-03 22:40 | -31.47583 | -64.06388 | 5857 ft | 222 kts | 356° |
| 2026-05-03 22:41 | -31.46105 | -64.06868 | 5501 ft | 223 kts | 330° |
| 2026-05-03 22:41 | -31.44971 | -64.08092 | 5205 ft | 224 kts | 304° |
| 2026-05-03 22:41 | -31.44433 | -64.09789 | 4938 ft | 225 kts | 282° |
| 2026-05-03 22:41 | -31.44189 | -64.11549 | 4665 ft | 217 kts | 282° |
| 2026-05-03 22:42 | -31.43948 | -64.13259 | 4407 ft | 208 kts | 282° |
| 2026-05-03 22:42 | -31.43716 | -64.14887 | 4157 ft | 197 kts | 284° |
| 2026-05-03 22:42 | -31.43208 | -64.16319 | 3964 ft | 188 kts | 308° |
| 2026-05-03 22:42 | -31.42258 | -64.17308 | 3694 ft | 177 kts | 332° |
| 2026-05-03 22:43 | -31.41248 | -64.17998 | 3449 ft | 161 kts | 332° |
| 2026-05-03 22:43 | -31.40324 | -64.18641 | 3223 ft | 149 kts | 332° |
| 2026-05-03 22:43 | -31.39456 | -64.19247 | 3020 ft | 144 kts | 332° |
| 2026-05-03 22:43 | -31.38596 | -64.19844 | 2829 ft | 142 kts | 332° |
| 2026-05-03 22:44 | -31.37745 | -64.20432 | 2634 ft | 142 kts | 335° |
| 2026-05-03 22:44 | -31.36816 | -64.20739 | 2441 ft | 139 kts | 358° |
| 2026-05-03 22:44 | -31.35860 | -64.20769 | 2315 ft | 137 kts | 1° |
| 2026-05-03 22:44 | -31.34910 | -64.20779 | 2119 ft | 135 kts | 0° |
| 2026-05-03 22:45 | -31.33971 | -64.20781 | 1937 ft | 135 kts | 359° |
| 2026-05-03 22:45 | -31.33026 | -64.20808 | 1737 ft | 135 kts | 360° |
| 2026-05-03 22:45 | -31.32087 | -64.20819 | 1616 ft | 130 kts | 359° |
| 2026-05-03 22:45 | -31.31392 | -64.20828 | 1617 ft | 58 kts | 359° |
| 2026-05-03 22:46 | -31.31215 | -64.20842 | 1617 ft | 14 kts | 343° |
| 2026-05-03 22:46 | -31.31182 | -64.20835 | 1617 ft | 3 kts | 122° |
| 2026-05-03 22:46 | -31.31230 | -64.20832 | 1613 ft | 11 kts | 180° |
| 2026-05-03 22:46 | -31.31339 | -64.20831 | 1618 ft | 19 kts | 179° |
| 2026-05-03 22:47 | -31.31460 | -64.20870 | 1621 ft | 19 kts | 241° |
| 2026-05-03 22:47 | -31.31466 | -64.20979 | 1613 ft | 0 kts | 269° |
| 2026-05-03 22:47 | -31.31466 | -64.20983 | 1613 ft | 0 kts | 269° |
| 2026-05-03 22:48 | -31.31467 | -64.21009 | 1613 ft | 8 kts | 264° |
| 2026-05-03 22:48 | -31.31496 | -64.21075 | 1618 ft | 6 kts | 223° |
| 2026-05-03 22:48 | -31.31531 | -64.21088 | 1614 ft | 6 kts | 210° |
| 2026-05-03 22:48 | -31.31545 | -64.21139 | 1615 ft | 8 kts | 257° |
| 2026-05-03 22:49 | -31.31551 | -64.21171 | 1617 ft | 1 kts | 257° |